Terminal Aerodrome Forecast
Issued by NWS

Home | Current Version | Previous Version | Text Only | Print | Product List | Glossary On
Versions: 1 2 3 4 5 6 7 8 9 10 11 12 13 14 15 16
000
FTUS43 KICT 171100
TAFCNU
TAF
KCNU 171132Z 1712/1812 01009KT P6SM OVC100
      TEMPO 1719/1723 6SM -RA OVC040
     FM172300 07005KT P6SM BKN090=

USA.gov is the U.S. government's official web portal to all federal, state and local government web resources and services.